Time;durP1;ratioP1;P1;durP2;ratioP2;P2;SDS_P1;SDS_P2;PMS_P1;PMS_P2;Temp;Humidity;BMP_temperature;BMP_pressure;BME280_temperature;BME280_humidity;BME280_pressure;Samples;Min_cycle;Max_cycle;Signal;HPM_P1;HPM_P2
2023/10/19 00:00:55;;;;;;;8.03;2.80;;;13.80;99.90;;;;;;5069987;28;20512;-72
2023/10/19 00:03:24;;;;;;;3.53;2.60;;;13.90;99.90;;;;;;5068754;28;20427;-73
2023/10/19 00:05:50;;;;;;;2.40;2.20;;;13.90;99.90;;;;;;5068382;28;20853;-73
2023/10/19 00:08:20;;;;;;;2.13;1.83;;;13.90;99.90;;;;;;5069668;28;20427;-74
2023/10/19 00:10:54;;;;;;;2.03;1.83;;;13.90;99.90;;;;;;5068333;28;21171;-73
2023/10/19 00:13:22;;;;;;;2.07;1.90;;;14.00;99.90;;;;;;5069701;28;20413;-72
2023/10/19 00:15:48;;;;;;;5.27;2.33;;;13.90;99.90;;;;;;5068194;28;20420;-73
2023/10/19 00:23:09;;;;;;;2.10;1.60;;;14.00;99.90;;;;;;5068961;28;20432;-73
2023/10/19 00:25:35;;;;;;;3.57;1.97;;;13.90;99.90;;;;;;5067955;28;20510;-72
2023/10/19 00:28:05;;;;;;;1.70;1.60;;;14.00;99.90;;;;;;5069129;28;20520;-73
2023/10/19 00:30:33;;;;;;;2.70;2.07;;;13.90;99.90;;;;;;5069406;28;20206;-73
2023/10/19 00:33:03;;;;;;;2.00;1.60;;;14.00;99.90;;;;;;5068932;28;20491;-74
2023/10/19 00:35:36;;;;;;;3.00;1.97;;;14.00;99.90;;;;;;5067929;28;20417;-73
2023/10/19 00:40:53;;;;;;;4.53;1.90;;;14.00;99.90;;;;;;5069006;28;20452;-72
2023/10/19 00:43:33;;;;;;;3.17;2.13;;;14.00;99.90;;;;;;5067480;28;20424;-72
2023/10/19 00:46:03;;;;;;;4.67;1.80;;;14.30;99.90;;;;;;5068811;28;20437;-73
2023/10/19 00:48:29;;;;;;;4.53;1.70;;;14.40;99.90;;;;;;5067510;28;20863;-72
2023/10/19 00:51:06;;;;;;;4.90;2.20;;;14.30;99.90;;;;;;5067360;28;20425;-71
2023/10/19 00:53:35;;;;;;;2.77;1.53;;;14.30;99.90;;;;;;5068691;28;20476;-72
2023/10/19 00:56:05;;;;;;;3.43;2.17;;;14.30;99.90;;;;;;5068448;28;20525;-73
2023/10/19 00:58:31;;;;;;;7.23;2.83;;;14.30;99.90;;;;;;5066933;28;20451;-73
2023/10/19 01:00:59;;;;;;;3.50;1.93;;;14.30;99.90;;;;;;5068251;28;20478;-72
2023/10/19 01:03:31;;;;;;;2.50;2.07;;;14.30;99.90;;;;;;5068470;28;20505;-72
2023/10/19 01:05:58;;;;;;;5.13;2.43;;;14.30;99.90;;;;;;5067152;28;20445;-72
2023/10/19 01:08:24;;;;;;;3.13;1.83;;;14.30;99.90;;;;;;5068503;28;20450;-71
2023/10/19 01:10:52;;;;;;;2.83;1.97;;;14.30;99.90;;;;;;5068290;28;20467;-74
2023/10/19 01:13:26;;;;;;;11.50;2.10;;;14.30;99.90;;;;;;5066888;28;20501;-73
2023/10/19 01:15:53;;;;;;;6.10;2.47;;;14.50;99.90;;;;;;5066815;28;20809;-73
2023/10/19 01:18:19;;;;;;;5.53;2.07;;;14.80;99.90;;;;;;5068229;28;20679;-73
2023/10/19 01:20:50;;;;;;;4.57;2.43;;;14.80;99.90;;;;;;5068144;28;20474;-74
2023/10/19 01:28:28;;;;;;;3.60;2.13;;;14.90;99.90;;;;;;5068071;28;20448;-73
2023/10/19 01:30:54;;;;;;;5.30;2.70;;;14.80;99.90;;;;;;5068138;28;20441;-72
2023/10/19 01:33:21;;;;;;;7.10;2.40;;;14.60;99.90;;;;;;5068059;28;20425;-73
2023/10/19 01:38:32;;;;;;;7.50;3.00;;;14.00;99.90;;;;;;5068533;28;20988;-73
2023/10/19 01:41:02;;;;;;;6.07;3.20;;;13.90;99.90;;;;;;5067893;28;20458;-73
2023/10/19 01:43:30;;;;;;;6.30;2.37;;;13.90;99.90;;;;;;5068198;28;20460;-73
2023/10/19 01:45:57;;;;;;;8.83;1.97;;;14.00;99.90;;;;;;5066287;28;20421;-73
2023/10/19 01:48:33;;;;;;;3.83;2.30;;;14.10;99.90;;;;;;5067886;28;20508;-73
2023/10/19 01:50:59;;;;;;;5.50;2.50;;;14.10;99.90;;;;;;5067946;28;20418;-73
2023/10/19 01:53:25;;;;;;;7.23;2.37;;;14.10;99.90;;;;;;5067906;28;20418;-73
2023/10/19 01:55:57;;;;;;;4.97;2.20;;;14.20;99.90;;;;;;5066391;28;20424;-73
2023/10/19 01:58:26;;;;;;;11.27;2.40;;;14.50;99.90;;;;;;5067884;28;20318;-73
2023/10/19 02:01:00;;;;;;;5.07;2.60;;;14.70;99.90;;;;;;5067646;28;20465;-72
2023/10/19 02:03:28;;;;;;;3.43;1.87;;;14.60;99.90;;;;;;5050171;28;20974;-73
2023/10/19 02:06:09;;;;;;;4.17;1.97;;;14.80;99.90;;;;;;5067659;28;20440;-73
2023/10/19 02:08:38;;;;;;;5.30;2.37;;;14.90;99.90;;;;;;5066340;28;20426;-74
2023/10/19 02:11:09;;;;;;;6.17;2.20;;;14.80;99.90;;;;;;5068007;28;20428;-74
2023/10/19 02:13:36;;;;;;;3.33;2.33;;;14.70;99.90;;;;;;5067801;28;20446;-74
2023/10/19 02:16:01;;;;;;;8.83;1.80;;;15.00;99.90;;;;;;5067543;28;20441;-72
2023/10/19 02:18:27;;;;;;;3.97;2.50;;;14.90;99.90;;;;;;5067841;28;20428;-73
2023/10/19 02:20:52;;;;;;;6.90;2.37;;;15.20;99.90;;;;;;5067529;28;20549;-73
2023/10/19 02:23:18;;;;;;;4.43;2.17;;;15.40;99.90;;;;;;5067556;28;20188;-74
2023/10/19 02:25:44;;;;;;;2.53;1.87;;;15.70;99.90;;;;;;5067565;28;20838;-74
2023/10/19 02:28:11;;;;;;;1.90;1.73;;;16.00;99.90;;;;;;5067963;28;20516;-73
2023/10/19 02:30:40;;;;;;;3.30;2.43;;;16.20;99.90;;;;;;5065773;28;20468;-74
2023/10/19 02:33:06;;;;;;;3.13;2.10;;;16.20;99.90;;;;;;5067467;28;20471;-74
2023/10/19 02:35:32;;;;;;;4.63;2.37;;;16.10;99.90;;;;;;5067507;28;20919;-74
2023/10/19 02:37:58;;;;;;;7.90;1.77;;;16.00;99.90;;;;;;5065987;28;20485;-74
2023/10/19 02:40:24;;;;;;;3.13;2.13;;;16.00;99.90;;;;;;5065965;28;20200;-74
2023/10/19 02:42:50;;;;;;;3.20;2.00;;;16.00;99.90;;;;;;5067420;28;20426;-74
2023/10/19 02:45:17;;;;;;;6.30;1.87;;;16.00;99.90;;;;;;5067429;28;20429;-74
2023/10/19 02:47:46;;;;;;;2.63;2.10;;;16.10;99.90;;;;;;5068862;28;20213;-74
2023/10/19 02:50:22;;;;;;;3.07;1.57;;;16.10;99.90;;;;;;5069338;28;20437;-74
2023/10/19 02:52:48;;;;;;;3.33;2.23;;;16.20;99.90;;;;;;5069647;28;20430;-74
2023/10/19 02:55:16;;;;;;;7.80;2.27;;;16.20;99.90;;;;;;5070920;28;20437;-73
2023/10/19 02:57:46;;;;;;;3.70;2.20;;;16.20;99.90;;;;;;5070631;28;20529;-74
2023/10/19 03:00:15;;;;;;;4.40;2.13;;;16.30;99.90;;;;;;5069039;28;20461;-73
2023/10/19 03:02:41;;;;;;;2.73;1.73;;;16.30;99.90;;;;;;5069162;28;20870;-74
2023/10/19 03:05:14;;;;;;;5.93;2.10;;;16.30;99.90;;;;;;5070807;28;20466;-74
2023/10/19 03:07:43;;;;;;;4.07;2.17;;;16.30;99.90;;;;;;5070555;28;20284;-74
2023/10/19 03:10:22;;;;;;;4.40;1.90;;;16.20;99.90;;;;;;5069130;28;20474;-73
2023/10/19 03:12:49;;;;;;;3.43;1.57;;;16.10;99.90;;;;;;5070551;28;20428;-74
2023/10/19 03:15:15;;;;;;;4.73;1.70;;;16.10;99.90;;;;;;5069040;28;20958;-73
2023/10/19 03:17:41;;;;;;;6.60;2.00;;;16.20;99.90;;;;;;5068921;28;20500;-74
2023/10/19 03:20:07;;;;;;;4.60;1.70;;;16.10;99.90;;;;;;5068866;28;20261;-73
2023/10/19 03:22:34;;;;;;;3.83;1.73;;;16.20;99.90;;;;;;5052253;28;20417;-74
2023/10/19 03:25:44;;;;;;;3.03;2.00;;;16.00;99.90;;;;;;5070491;28;20841;-74
2023/10/19 03:27:45;;;;;;;4.07;1.87;;;15.80;99.90;;;;;;5069010;28;20447;-74
2023/10/19 03:30:15;;;;;;;4.23;2.30;;;15.60;99.90;;;;;;5051910;28;20815;-74
2023/10/19 03:32:41;;;;;;;2.50;1.87;;;15.40;99.90;;;;;;5068907;28;20560;-74
2023/10/19 03:35:07;;;;;;;5.23;2.40;;;15.50;99.90;;;;;;5070085;28;20422;-73
2023/10/19 03:37:35;;;;;;;2.80;1.80;;;15.70;99.90;;;;;;5068358;28;20213;-73
2023/10/19 03:40:07;;;;;;;6.33;1.57;;;15.70;99.90;;;;;;5069869;28;20244;-74
2023/10/19 03:42:33;;;;;;;6.20;1.73;;;15.80;99.90;;;;;;5069931;28;20413;-74
2023/10/19 03:45:02;;;;;;;15.00;8.63;;;15.70;99.90;;;;;;5068533;28;20410;-74
2023/10/19 03:47:34;;;;;;;12.80;10.93;;;15.40;99.90;;;;;;5070014;28;20622;-73
2023/10/19 03:50:06;;;;;;;12.37;10.53;;;14.60;99.90;;;;;;5069676;28;20461;-73
2023/10/19 03:52:32;;;;;;;20.37;11.70;;;14.00;99.90;;;;;;5069817;28;20503;-73
2023/10/19 03:54:58;;;;;;;15.57;10.90;;;13.60;99.90;;;;;;5068148;28;20443;-73
2023/10/19 03:57:25;;;;;;;18.60;12.43;;;13.30;99.90;;;;;;5069156;28;20434;-73
2023/10/19 03:59:57;;;;;;;15.07;12.30;;;13.00;99.90;;;;;;5069314;28;20206;-74
2023/10/19 04:02:29;;;;;;;14.80;12.80;;;12.70;99.90;;;;;;5069355;28;20437;-74
2023/10/19 04:04:57;;;;;;;16.23;13.30;;;12.60;99.90;;;;;;5069520;28;21262;-73
2023/10/19 04:07:25;;;;;;;18.57;13.80;;;12.50;99.90;;;;;;5069800;28;20441;-73
2023/10/19 04:12:24;;;;;;;22.20;13.53;;;12.30;99.90;;;;;;5068532;28;20517;-73
2023/10/19 04:14:51;;;;;;;19.60;13.50;;;12.20;99.90;;;;;;5067039;28;20560;-73
2023/10/19 04:17:21;;;;;;;20.10;14.07;;;12.10;99.90;;;;;;5067237;28;20963;-73
2023/10/19 04:19:48;;;;;;;18.37;13.80;;;12.00;99.90;;;;;;5067057;28;20567;-73
2023/10/19 04:22:22;;;;;;;23.30;16.87;;;12.00;99.90;;;;;;5068475;28;20417;-73
2023/10/19 04:24:49;;;;;;;23.00;14.60;;;12.00;99.90;;;;;;5067002;28;20427;-73
2023/10/19 04:27:14;;;;;;;25.80;14.97;;;11.90;99.90;;;;;;5068400;28;20536;-73
2023/10/19 04:29:43;;;;;;;22.30;15.43;;;11.90;99.90;;;;;;5067155;28;20443;-73
2023/10/19 04:32:14;;;;;;;26.40;16.33;;;11.80;99.90;;;;;;5068373;28;20678;-73
2023/10/19 04:34:40;;;;;;;22.23;16.50;;;11.80;99.90;;;;;;5068417;28;20428;-73
2023/10/19 04:37:06;;;;;;;25.13;17.87;;;11.80;99.90;;;;;;5068216;28;20447;-73
2023/10/19 04:39:34;;;;;;;28.77;18.57;;;11.70;99.90;;;;;;5067657;28;20502;-74
2023/10/19 04:41:59;;;;;;;25.10;17.77;;;11.70;99.90;;;;;;5068539;28;20853;-73
2023/10/19 04:44:25;;;;;;;21.13;12.20;;;11.70;99.90;;;;;;5067734;28;20428;-73
2023/10/19 04:46:51;;;;;;;6.60;5.90;;;11.70;99.90;;;;;;5068408;28;20214;-73
2023/10/19 04:49:16;;;;;;;7.37;2.53;;;12.00;99.90;;;;;;5067868;28;20575;-73
2023/10/19 04:51:43;;;;;;;9.23;2.43;;;12.60;99.90;;;;;;5066551;28;20191;-73
2023/10/19 04:54:09;;;;;;;5.10;2.20;;;13.20;99.90;;;;;;5067733;28;20606;-72
2023/10/19 04:56:36;;;;;;;2.03;1.70;;;13.50;99.90;;;;;;5067578;28;20445;-73
2023/10/19 04:59:02;;;;;;;3.30;1.67;;;13.60;99.90;;;;;;5066188;28;20432;-73
2023/10/19 05:01:28;;;;;;;2.40;1.40;;;13.80;99.90;;;;;;5067633;28;20773;-73
2023/10/19 05:03:53;;;;;;;3.97;1.80;;;14.00;99.90;;;;;;5067772;28;20425;-73
2023/10/19 05:06:19;;;;;;;2.80;1.87;;;14.50;99.90;;;;;;5065904;28;20210;-73
2023/10/19 05:08:46;;;;;;;3.10;1.70;;;14.50;99.90;;;;;;5067415;28;20189;-74
2023/10/19 05:11:12;;;;;;;4.03;1.70;;;14.60;99.90;;;;;;5065338;28;20192;-73
2023/10/19 05:13:38;;;;;;;1.87;1.60;;;14.60;99.90;;;;;;5067533;28;20432;-74
2023/10/19 05:16:05;;;;;;;4.03;1.63;;;14.70;99.90;;;;;;5067642;28;20203;-73
2023/10/19 05:18:30;;;;;;;2.53;1.33;;;14.90;99.90;;;;;;5067701;28;20425;-73
2023/10/19 05:20:56;;;;;;;5.73;1.70;;;15.20;99.90;;;;;;5067599;28;20992;-73
2023/10/19 05:23:26;;;;;;;1.40;1.30;;;15.30;99.90;;;;;;5067665;28;20417;-72
2023/10/19 05:25:53;;;;;;;2.13;1.27;;;15.20;99.90;;;;;;5067807;28;20409;-72
2023/10/19 05:28:19;;;;;;;1.50;1.13;;;15.60;99.90;;;;;;5068012;28;20932;-74
2023/10/19 05:30:45;;;;;;;2.23;1.33;;;15.50;99.90;;;;;;5065873;28;20478;-74
2023/10/19 05:33:11;;;;;;;1.50;1.40;;;15.50;99.90;;;;;;5067054;28;20879;-73
2023/10/19 05:35:40;;;;;;;2.03;1.80;;;15.60;99.90;;;;;;5065414;28;20187;-73
2023/10/19 05:38:09;;;;;;;1.80;1.10;;;15.70;99.90;;;;;;5066071;28;20422;-73
2023/10/19 05:40:35;;;;;;;2.27;1.40;;;15.80;99.90;;;;;;5067335;28;20453;-73
2023/10/19 05:43:02;;;;;;;5.17;1.83;;;15.80;99.90;;;;;;5065821;28;20927;-73
2023/10/19 05:45:28;;;;;;;1.33;1.23;;;15.70;99.90;;;;;;5067274;28;20418;-73
2023/10/19 05:47:57;;;;;;;2.50;1.30;;;15.60;99.90;;;;;;5067103;28;20957;-73
2023/10/19 05:50:23;;;;;;;3.60;1.47;;;15.70;99.90;;;;;;5065523;28;20859;-73
2023/10/19 05:52:49;;;;;;;4.20;1.20;;;15.60;99.90;;;;;;5065576;28;20488;-73
2023/10/19 05:55:15;;;;;;;2.10;1.03;;;15.70;99.90;;;;;;5065521;28;20500;-73
2023/10/19 05:57:41;;;;;;;2.80;1.30;;;15.60;99.90;;;;;;5066924;28;20515;-74
2023/10/19 06:00:15;;;;;;;5.50;1.13;;;15.80;99.90;;;;;;5067191;28;21039;-72
2023/10/19 06:02:49;;;;;;;3.20;1.10;;;15.80;99.90;;;;;;5065912;28;20192;-72
2023/10/19 06:05:16;;;;;;;1.13;1.00;;;15.90;99.90;;;;;;5066049;28;20419;-72
2023/10/19 06:07:42;;;;;;;3.10;1.43;;;15.90;99.90;;;;;;5065871;28;20435;-72
2023/10/19 06:10:15;;;;;;;2.87;1.27;;;15.70;99.90;;;;;;5067353;28;20462;-72
2023/10/19 06:12:44;;;;;;;1.97;1.73;;;15.60;99.90;;;;;;5067302;28;20419;-71
2023/10/19 06:15:11;;;;;;;8.00;1.80;;;15.40;99.90;;;;;;5067173;28;20423;-71
2023/10/19 06:17:41;;;;;;;2.13;1.33;;;15.50;99.90;;;;;;5067278;28;20445;-73
2023/10/19 06:20:08;;;;;;;1.67;1.17;;;15.50;99.90;;;;;;5066015;28;20462;-73
2023/10/19 06:22:35;;;;;;;2.73;1.23;;;15.80;99.90;;;;;;5070667;28;20455;-72
2023/10/19 06:25:07;;;;;;;3.07;2.30;;;16.00;99.90;;;;;;5071604;28;20418;-72
2023/10/19 06:27:33;;;;;;;2.70;1.37;;;16.20;99.90;;;;;;5071117;28;20837;-73
2023/10/19 06:29:58;;;;;;;2.83;0.93;;;16.30;99.90;;;;;;5071293;28;20483;-72
2023/10/19 06:32:24;;;;;;;2.13;1.10;;;16.20;99.90;;;;;;5069862;28;20212;-73
2023/10/19 06:34:50;;;;;;;1.23;1.13;;;16.20;99.90;;;;;;5071162;28;20225;-73
2023/10/19 06:37:15;;;;;;;5.30;1.40;;;16.30;99.90;;;;;;5070950;28;20204;-72
2023/10/19 06:39:41;;;;;;;5.00;1.30;;;16.20;99.90;;;;;;5071337;28;20192;-73
2023/10/19 06:42:13;;;;;;;1.90;1.07;;;16.10;99.90;;;;;;5071405;28;20210;-73
2023/10/19 06:44:42;;;;;;;6.30;1.20;;;16.30;99.90;;;;;;5070301;28;20181;-72
2023/10/19 06:47:08;;;;;;;2.37;1.20;;;16.40;99.90;;;;;;5071264;28;20427;-72
2023/10/19 06:49:34;;;;;;;2.33;1.30;;;16.30;99.90;;;;;;5070912;28;20473;-72
2023/10/19 06:52:00;;;;;;;2.87;1.53;;;16.20;99.90;;;;;;5070829;28;20422;-71
2023/10/19 06:54:27;;;;;;;3.33;1.97;;;16.20;99.90;;;;;;5069644;28;20422;-73
2023/10/19 06:56:53;;;;;;;4.27;3.90;;;16.00;99.90;;;;;;5052790;28;20457;-73
2023/10/19 06:59:19;;;;;;;11.00;5.77;;;15.60;99.90;;;;;;5069404;28;20512;-73
2023/10/19 07:01:46;;;;;;;8.67;5.30;;;14.90;99.90;;;;;;5070510;28;20991;-72
2023/10/19 07:04:12;;;;;;;6.50;5.80;;;14.30;99.90;;;;;;5069620;28;20190;-72
2023/10/19 07:06:38;;;;;;;9.03;5.53;;;14.20;99.90;;;;;;5070840;28;20446;-74
2023/10/19 07:09:05;;;;;;;16.83;7.20;;;13.90;99.90;;;;;;5069558;28;20437;-73
2023/10/19 07:11:33;;;;;;;9.40;6.77;;;13.70;99.90;;;;;;5070796;28;20421;-71
2023/10/19 07:13:59;;;;;;;13.03;6.27;;;13.60;99.90;;;;;;5068892;28;20485;-72
2023/10/19 07:16:26;;;;;;;9.73;3.23;;;13.60;99.90;;;;;;5070343;28;20805;-72
2023/10/19 07:18:52;;;;;;;2.57;1.93;;;13.60;99.90;;;;;;5070393;28;20997;-72
2023/10/19 07:21:18;;;;;;;4.03;1.63;;;14.00;99.90;;;;;;5068625;28;21135;-72
2023/10/19 07:23:45;;;;;;;6.60;1.47;;;14.20;99.90;;;;;;5070187;28;20429;-72
2023/10/19 07:26:14;;;;;;;1.23;1.13;;;14.30;99.90;;;;;;5069879;28;20449;-73
2023/10/19 07:28:40;;;;;;;2.07;1.20;;;14.40;99.90;;;;;;5069847;28;20422;-72
2023/10/19 07:31:15;;;;;;;5.57;1.33;;;14.50;99.90;;;;;;5069782;28;20987;-73
2023/10/19 07:33:45;;;;;;;3.37;1.43;;;14.60;99.90;;;;;;5068365;28;20776;-73
2023/10/19 07:36:14;;;;;;;3.47;1.40;;;14.60;99.90;;;;;;5069364;28;20484;-74
2023/10/19 07:38:42;;;;;;;1.20;1.10;;;14.60;99.90;;;;;;5069244;28;20434;-73
2023/10/19 07:41:09;;;;;;;1.00;0.90;;;14.70;99.90;;;;;;5069304;28;20878;-73
2023/10/19 07:43:35;;;;;;;2.23;1.20;;;14.90;99.90;;;;;;5069547;28;20418;-73
2023/10/19 07:46:01;;;;;;;1.50;1.07;;;15.00;99.90;;;;;;5069233;28;20441;-73
2023/10/19 07:48:27;;;;;;;2.03;1.37;;;15.00;99.90;;;;;;5069043;28;20509;-73
2023/10/19 07:50:53;;;;;;;1.20;1.10;;;15.10;99.90;;;;;;5069062;28;20456;-73
2023/10/19 07:53:19;;;;;;;1.87;1.20;;;15.20;99.90;;;;;;5068885;28;20203;-73
2023/10/19 07:55:45;;;;;;;1.83;1.23;;;15.20;99.90;;;;;;5068709;28;20469;-72
2023/10/19 07:58:11;;;;;;;3.27;0.93;;;15.30;99.90;;;;;;5068705;28;20453;-73
2023/10/19 08:00:38;;;;;;;2.20;0.83;;;15.40;99.90;;;;;;5066980;28;20850;-73
2023/10/19 08:03:05;;;;;;;2.30;1.10;;;15.50;99.90;;;;;;5068325;28;20442;-74
2023/10/19 08:05:31;;;;;;;1.87;1.00;;;15.50;99.90;;;;;;5068374;28;20474;-72
2023/10/19 08:07:58;;;;;;;2.20;0.80;;;15.60;99.90;;;;;;5068456;28;20442;-73
2023/10/19 08:10:25;;;;;;;1.03;0.70;;;15.70;99.90;;;;;;5068184;28;20214;-73
2023/10/19 08:12:51;;;;;;;2.50;0.80;;;15.70;99.90;;;;;;5067937;28;20433;-72
2023/10/19 08:15:18;;;;;;;3.70;1.80;;;15.70;99.90;;;;;;5066284;28;20545;-73
2023/10/19 08:17:47;;;;;;;10.30;5.50;;;15.90;99.90;;;;;;5066442;28;20495;-72
2023/10/19 08:20:17;;;;;;;9.20;5.33;;;15.70;99.90;;;;;;5067686;28;20457;-72
2023/10/19 08:22:46;;;;;;;8.27;6.10;;;15.30;99.90;;;;;;5067757;28;20451;-72
2023/10/19 08:25:14;;;;;;;7.20;5.23;;;15.10;99.90;;;;;;5067717;28;20452;-72
2023/10/19 08:27:45;;;;;;;6.10;4.70;;;15.00;99.90;;;;;;5067380;28;20446;-73
2023/10/19 08:30:12;;;;;;;6.60;4.10;;;15.10;99.90;;;;;;5065964;28;20468;-72
2023/10/19 08:32:39;;;;;;;6.30;4.17;;;15.20;99.90;;;;;;5067612;28;20556;-73
2023/10/19 08:35:05;;;;;;;5.50;2.87;;;15.30;99.90;;;;;;5067454;28;20433;-73
2023/10/19 08:37:31;;;;;;;7.03;3.60;;;15.50;99.90;;;;;;5067402;28;20806;-72
2023/10/19 08:39:57;;;;;;;10.33;7.73;;;15.70;99.90;;;;;;5065895;28;20772;-72
2023/10/19 08:42:24;;;;;;;12.13;10.00;;;16.10;99.90;;;;;;5067321;28;20660;-73
2023/10/19 08:44:49;;;;;;;14.07;10.53;;;15.90;99.90;;;;;;5065678;28;20431;-73
2023/10/19 08:47:15;;;;;;;15.00;9.33;;;16.00;99.90;;;;;;5067164;28;20437;-72
2023/10/19 08:49:41;;;;;;;11.70;9.27;;;15.90;99.90;;;;;;5067607;28;20176;-72
2023/10/19 08:52:07;;;;;;;10.43;8.53;;;15.70;99.90;;;;;;5065742;28;20426;-72
2023/10/19 08:54:33;;;;;;;10.23;8.67;;;15.80;99.90;;;;;;5067164;28;20209;-72
2023/10/19 08:56:59;;;;;;;11.63;7.47;;;15.90;99.90;;;;;;5067337;28;20430;-73
2023/10/19 08:59:26;;;;;;;9.30;7.20;;;16.00;99.90;;;;;;5067129;28;20507;-73
2023/10/19 09:02:02;;;;;;;10.97;8.00;;;16.10;99.90;;;;;;5067303;28;20493;-73
2023/10/19 09:04:28;;;;;;;10.33;8.40;;;16.00;99.90;;;;;;5067564;28;20402;-73
2023/10/19 09:06:55;;;;;;;13.37;7.90;;;15.90;99.90;;;;;;5067736;28;20428;-73
2023/10/19 09:09:21;;;;;;;9.17;7.60;;;15.80;99.90;;;;;;5065974;28;20426;-73
2023/10/19 09:11:47;;;;;;;10.20;7.87;;;15.70;99.90;;;;;;5067443;28;20423;-73
2023/10/19 09:14:14;;;;;;;9.77;7.60;;;15.60;99.90;;;;;;5066040;28;20432;-73
2023/10/19 09:16:56;;;;;;;10.40;7.70;;;15.60;99.90;;;;;;5067278;28;20447;-73
2023/10/19 09:19:36;;;;;;;10.33;7.70;;;15.60;99.90;;;;;;5065957;28;20517;-72
2023/10/19 09:22:07;;;;;;;8.97;6.83;;;15.70;99.90;;;;;;5067574;28;20462;-73
2023/10/19 09:24:34;;;;;;;19.83;11.20;;;15.60;99.90;;;;;;5066467;28;20514;-73
2023/10/19 09:26:59;;;;;;;11.53;7.93;;;15.70;99.90;;;;;;5067638;28;20435;-73
2023/10/19 09:29:25;;;;;;;8.13;7.30;;;15.50;99.90;;;;;;5065898;28;21105;-72
2023/10/19 09:31:54;;;;;;;8.57;6.37;;;15.50;99.90;;;;;;5066049;28;20179;-73
2023/10/19 09:34:21;;;;;;;18.50;6.63;;;15.60;99.90;;;;;;5066893;28;20738;-73
2023/10/19 09:36:47;;;;;;;9.80;6.47;;;15.70;99.90;;;;;;5066614;28;20954;-72
2023/10/19 09:39:13;;;;;;;7.63;5.90;;;15.80;99.90;;;;;;5065338;28;20466;-73
2023/10/19 09:41:40;;;;;;;7.33;6.50;;;15.80;99.90;;;;;;5066619;28;20219;-72
2023/10/19 09:44:10;;;;;;;10.53;6.63;;;15.80;99.90;;;;;;5066789;28;20487;-73
2023/10/19 09:46:39;;;;;;;7.07;6.10;;;15.80;99.90;;;;;;5066871;28;20485;-73
2023/10/19 09:49:06;;;;;;;8.93;6.90;;;15.80;99.90;;;;;;5066732;28;20426;-73
2023/10/19 09:51:33;;;;;;;9.33;7.77;;;15.70;99.90;;;;;;5065187;28;20426;-73
2023/10/19 09:54:19;;;;;;;12.43;6.63;;;15.60;99.90;;;;;;5064903;28;20461;-73
2023/10/19 09:56:52;;;;;;;12.63;7.20;;;15.60;99.90;;;;;;5068483;28;20443;-73
2023/10/19 09:59:33;;;;;;;8.43;6.67;;;15.50;99.90;;;;;;5070633;28;20446;-74
2023/10/19 10:02:12;;;;;;;11.30;7.20;;;15.40;99.90;;;;;;5070453;28;21068;-73
2023/10/19 10:04:39;;;;;;;9.53;6.90;;;15.40;99.90;;;;;;5070939;28;20915;-72
2023/10/19 10:07:06;;;;;;;9.27;8.20;;;15.40;99.90;;;;;;5069017;28;20512;-73
2023/10/19 10:09:40;;;;;;;10.97;7.03;;;15.40;99.90;;;;;;5069167;28;20450;-73
2023/10/19 10:12:23;;;;;;;8.30;6.40;;;15.40;99.90;;;;;;5071006;28;20417;-72
2023/10/19 10:15:01;;;;;;;9.30;5.93;;;15.40;99.90;;;;;;5070555;28;20471;-73
2023/10/19 10:17:27;;;;;;;7.60;5.50;;;15.50;99.90;;;;;;5070908;28;20820;-73
2023/10/19 10:20:13;;;;;;;9.67;7.00;;;15.50;99.90;;;;;;5070596;28;21098;-73
2023/10/19 10:22:41;;;;;;;6.50;5.20;;;15.50;99.90;;;;;;5070141;28;20442;-73
2023/10/19 10:25:07;;;;;;;7.27;6.10;;;15.50;99.90;;;;;;5070726;28;20415;-73
2023/10/19 10:27:36;;;;;;;10.10;6.10;;;15.60;99.90;;;;;;5070482;28;20436;-73
2023/10/19 10:30:07;;;;;;;17.03;6.90;;;15.60;99.90;;;;;;5069135;28;20459;-73
2023/10/19 10:32:53;;;;;;;6.57;5.90;;;15.60;99.90;;;;;;5070568;28;20971;-74
2023/10/19 10:35:38;;;;;;;8.17;6.10;;;15.60;99.90;;;;;;5070669;28;20435;-73
2023/10/19 10:38:14;;;;;;;12.70;6.70;;;15.60;99.90;;;;;;5070459;28;20495;-73
2023/10/19 10:40:43;;;;;;;9.97;6.80;;;15.70;99.90;;;;;;5070356;28;20481;-73
2023/10/19 10:43:10;;;;;;;9.23;7.40;;;15.80;99.90;;;;;;5068574;28;20419;-72
2023/10/19 10:45:36;;;;;;;7.50;6.50;;;15.80;99.90;;;;;;5068301;28;20425;-73
2023/10/19 10:48:02;;;;;;;10.37;6.47;;;15.80;99.90;;;;;;5069799;28;20767;-72
2023/10/19 10:50:30;;;;;;;14.10;7.03;;;15.90;99.90;;;;;;5069927;28;20447;-73
2023/10/19 10:52:59;;;;;;;11.90;7.70;;;15.90;99.90;;;;;;5069858;28;20182;-72
2023/10/19 10:55:25;;;;;;;9.63;8.63;;;15.90;99.90;;;;;;5070074;28;20515;-73
2023/10/19 10:57:51;;;;;;;15.13;8.80;;;15.90;99.90;;;;;;5051663;28;20911;-72
2023/10/19 11:00:18;;;;;;;11.40;8.90;;;15.90;99.90;;;;;;5069919;28;20208;-73
2023/10/19 11:02:46;;;;;;;12.57;8.93;;;15.90;99.90;;;;;;5068288;28;20212;-73
2023/10/19 11:05:13;;;;;;;10.50;8.50;;;15.90;99.90;;;;;;5069875;28;20416;-74
2023/10/19 11:07:58;;;;;;;12.20;8.70;;;15.90;99.90;;;;;;5069512;28;20447;-72
2023/10/19 11:10:27;;;;;;;13.40;8.30;;;15.80;99.90;;;;;;5069409;28;20957;-73
2023/10/19 11:13:03;;;;;;;11.07;7.73;;;15.80;99.90;;;;;;5069301;28;20423;-73
2023/10/19 11:15:29;;;;;;;11.00;7.80;;;15.70;99.90;;;;;;5069792;28;20423;-72
2023/10/19 11:17:55;;;;;;;11.03;8.60;;;15.70;99.90;;;;;;5069840;28;20469;-73
2023/10/19 11:20:22;;;;;;;14.63;9.73;;;15.60;99.90;;;;;;5069460;28;20485;-73
2023/10/19 11:22:52;;;;;;;9.93;8.23;;;15.60;99.90;;;;;;5069244;28;20536;-73
2023/10/19 11:25:23;;;;;;;12.77;9.10;;;15.60;99.90;;;;;;5068855;28;20472;-71
2023/10/19 11:27:48;;;;;;;11.93;9.83;;;15.60;99.90;;;;;;5067275;28;20557;-73
2023/10/19 11:30:26;;;;;;;24.10;12.73;;;15.60;99.90;;;;;;5068835;28;20972;-73
2023/10/19 11:32:59;;;;;;;19.10;12.23;;;15.60;99.90;;;;;;5068993;28;20176;-72
2023/10/19 11:35:30;;;;;;;17.50;11.40;;;15.60;99.90;;;;;;5069365;28;20459;-73
2023/10/19 11:37:59;;;;;;;14.83;10.17;;;15.60;99.90;;;;;;5069084;28;20435;-73
2023/10/19 11:40:25;;;;;;;14.90;10.80;;;15.60;99.90;;;;;;5066996;28;20453;-74
2023/10/19 11:42:53;;;;;;;15.43;9.00;;;15.60;99.90;;;;;;5068625;28;20845;-73
2023/10/19 11:45:19;;;;;;;12.90;8.07;;;15.60;99.90;;;;;;5068678;28;20812;-73
2023/10/19 11:47:45;;;;;;;14.47;8.67;;;15.60;99.90;;;;;;5067056;28;20436;-73
2023/10/19 11:50:18;;;;;;;14.50;8.10;;;15.60;99.90;;;;;;5067281;28;20424;-72
2023/10/19 11:52:45;;;;;;;14.87;9.50;;;15.70;99.90;;;;;;5067150;28;20466;-72
2023/10/19 11:55:13;;;;;;;3.30;3.00;;;15.70;99.90;;;;;;5067404;28;20418;-73
2023/10/19 11:57:40;;;;;;;3.47;1.63;;;15.80;99.90;;;;;;5068768;28;20439;-73
2023/10/19 12:00:09;;;;;;;2.40;1.80;;;15.90;99.90;;;;;;5069072;28;20452;-73
2023/10/19 12:02:37;;;;;;;3.50;2.60;;;15.90;99.90;;;;;;5067739;28;20605;-73
2023/10/19 12:05:04;;;;;;;10.40;5.20;;;15.90;99.90;;;;;;5068906;28;20414;-72
2023/10/19 12:07:31;;;;;;;25.97;16.73;;;15.90;99.90;;;;;;5066909;28;20451;-73
2023/10/19 12:09:58;;;;;;;13.13;9.10;;;15.90;99.90;;;;;;5068437;28;20504;-72
2023/10/19 12:12:23;;;;;;;7.97;5.60;;;15.90;99.90;;;;;;5066836;28;20502;-73
2023/10/19 12:14:50;;;;;;;7.40;5.67;;;16.00;99.90;;;;;;5066585;28;20271;-73
2023/10/19 12:17:17;;;;;;;6.13;5.23;;;16.00;99.90;;;;;;5067920;28;20193;-73
2023/10/19 12:19:43;;;;;;;5.70;3.63;;;16.00;99.90;;;;;;5065688;28;21018;-74
2023/10/19 12:22:08;;;;;;;4.90;2.77;;;16.10;99.90;;;;;;5067784;28;20471;-73
2023/10/19 12:24:34;;;;;;;5.87;3.13;;;16.00;99.90;;;;;;5067833;28;20567;-72
2023/10/19 12:26:59;;;;;;;6.00;3.23;;;16.00;99.90;;;;;;5066340;28;20212;-73
2023/10/19 12:29:25;;;;;;;5.70;3.10;;;16.00;99.90;;;;;;5067617;28;20173;-73
2023/10/19 12:31:51;;;;;;;3.53;2.83;;;15.90;99.90;;;;;;5067579;28;20182;-72
2023/10/19 12:34:16;;;;;;;3.33;2.20;;;15.90;99.90;;;;;;5067524;28;20190;-72
2023/10/19 12:36:44;;;;;;;2.53;2.00;;;15.90;99.90;;;;;;5066150;28;20686;-73
2023/10/19 12:39:35;;;;;;;2.27;1.53;;;15.90;99.90;;;;;;5067407;28;20192;-73
2023/10/19 12:41:56;;;;;;;2.80;1.23;;;15.80;99.90;;;;;;5067270;28;21068;-72
2023/10/19 12:44:22;;;;;;;1.03;0.93;;;15.70;99.90;;;;;;5066019;28;20422;-73
2023/10/19 12:46:48;;;;;;;2.80;1.10;;;15.70;99.90;;;;;;5067299;28;20881;-73
2023/10/19 12:49:16;;;;;;;1.17;0.83;;;15.70;99.90;;;;;;5067466;28;20659;-73
2023/10/19 12:51:45;;;;;;;2.20;1.53;;;15.70;99.90;;;;;;5067522;28;20179;-72
2023/10/19 12:54:13;;;;;;;2.50;1.50;;;15.70;99.90;;;;;;5067672;28;20451;-73
2023/10/19 12:56:39;;;;;;;2.50;1.27;;;15.80;99.90;;;;;;5067656;28;20812;-72
2023/10/19 12:59:06;;;;;;;1.93;1.10;;;15.80;99.90;;;;;;5066387;28;20434;-73
2023/10/19 13:01:35;;;;;;;4.23;1.83;;;15.80;99.90;;;;;;5066090;28;20281;-73
2023/10/19 13:04:06;;;;;;;3.03;1.70;;;15.80;99.90;;;;;;5066441;28;20927;-72
2023/10/19 13:06:33;;;;;;;1.53;1.20;;;15.80;99.90;;;;;;5066201;28;20896;-73